x

West Gulf - 207 Nm East Of Brownsville, Tx (42002) Wave Buoy

7:50pm - Wed 26th Nov 2014 All times are CST. -6 hours from GMT.

  • Sig Wave height 2.6ft
  • Swell Direction
  • Peak Period 7s
  • Average Period 6s
  • Wind
    7mph, 9mph gusts
  • Sea Temp 74°f
  • Air Temp 68°f
  • Sea Pressure 1026.6mb
  • West Gulf - 207 Nm East Of Brownsville, Tx
  • West Gulf - 207 Nm East Of Brownsville, Tx

More Historic Weather Station data

Upgrade to MSW Pro to gain access to the past 30 days of data for over 8000 Wavebouys and Weather Stations around the globe.

Join Pro

Comparision Forecast

View Surf forecast
   
Wed 11/26 7:50pm 2.5ft 7s 6s 7 9 mph 1026.6mb 74f 68f
6:50pm 3ft 8s 6s 7 9 mph 1026.1mb 74f 68f
5:50pm 3.5ft 8s 6s 7 9 mph 1025.3mb 74f 68f
4:50pm 3.5ft 7s 6s 7 11 mph 1024.8mb 74f 68f
3:50pm 3.5ft 8s 6s 7 11 mph 1024.7mb 74f 68f
2:50pm 3.5ft 8s 6s 7 9 mph 1024.7mb 74f 68f
1:50pm 4.5ft 8s 6s 7 9 mph 1024.6mb 74f 67f
12:50pm 4.5ft 8s 6s 4 9 mph 1025mb 74f 67f
11:50am 4.5ft 8s 6s 4 11 mph 1025.7mb 74f 67f
10:50am 5ft 7s 6s 2 4 mph 1026.7mb 74f 67f
9:50am 5ft 8s 6s 4 9 mph 1027mb 74f 66f
8:50am 5.5ft 8s 6s 9 11 mph 1026.6mb 74f 66f
7:50am 5.5ft 8s 6s 7 9 mph 1026.1mb 74f 65f
6:50am 5.5ft 8s 6s 9 16 mph 1025.6mb 74f 65f
5:50am 5.5ft 8s 6s 11 16 mph 1025.1mb 74f 65f
4:50am 6ft 8s 6s 13 18 mph 1024.6mb 74f 65f
3:50am 7ft 8s 6s 16 20 mph 1024.3mb 74f 65f
2:50am 6.5ft 8s 6s 18 25 mph 1024.2mb 74f 65f
1:50am 7ft 8s 6s 18 25 mph 1024.2mb 74f 65f
12:50am 7ft 8s 6s 18 25 mph 1024.2mb 74f 65f
Tue 11/25 11:50pm 8ft 8s 6s 20 25 mph 1024mb 74f 65f
10:50pm 7.5ft 9s 6s 20 25 mph 1024mb 74f 65f
9:50pm 7.5ft 9s 6s 22 27 mph 1024mb 74f 65f
8:50pm 8ft 8s 6s 20 27 mph 1024.1mb 74f 65f
7:50pm 8.5ft 9s 6s 22 29 mph 1023.6mb 74f 65f
6:50pm 8.5ft 9s 6s 22 29 mph 1023.2mb 74f 66f
5:50pm 8ft 8s 6s 22 27 mph 1022.3mb 74f 67f
4:50pm 9.5ft 8s 6s 22 29 mph 1021.7mb 74f 67f
3:50pm 9ft 8s 6s 20 27 mph 1021.2mb 74f 67f
2:50pm 10ft 8s 6s 22 29 mph 1020.1mb 74f 67f
1:50pm 9.5ft 8s 6s 27 31 mph 1020.1mb 74f 67f
12:50pm 10ft 8s 6s 25 31 mph 1020.7mb 74f 66f
11:50am 9ft 8s 6s 25 34 mph 1021.3mb 74f 67f
10:50am 9ft 7s 6s 27 34 mph 1020.9mb 74f 67f
9:50am 8.5ft 7s 6s 27 34 mph 1020.2mb 74f 67f
8:50am 7ft 8s 5s 27 34 mph 1019.1mb 74f 68f
7:50am 6.5ft 6s 5s 25 34 mph 1017.9mb 74f 69f
6:50am 6.5ft 7s 6s 22 27 mph 1017.5mb 74f 69f
5:50am 7ft 7s 6s 20 25 mph 1017mb 74f 69f
4:50am 7ft 8s 6s 20 25 mph 1016.4mb 74f 69f
3:50am 7ft 8s 6s 20 25 mph 1016.1mb 74f 69f
2:50am 7.5ft 8s 6s 22 29 mph 1015.7mb 74f 69f
1:50am 7.5ft 8s 6s 25 27 mph 1015.9mb 74f 69f
12:50am 7ft 7s 6s 22 29 mph 1016.4mb 74f 69f
Mon 11/24 11:50pm 8ft 8s 6s 22 27 mph 1016.4mb 74f 69f
10:50pm 7ft 7s 5s 25 29 mph 1016.5mb 74f 69f
9:50pm 8ft 7s 6s 22 27 mph 1016.2mb 74f 69f
8:50pm 8ft 8s 6s 25 29 mph 1015.2mb 74f 69f
7:50pm 8ft 8s 6s 25 29 mph 1014.4mb 74f 69f
6:50pm 7ft 8s 5s 25 29 mph 1014mb 74f 69f
5:50pm 7ft 6s 5s 25 29 mph 1012.7mb 74f 69f
4:50pm 6ft 6s 5s 25 29 mph 1012.7mb 74f 69f
3:50pm 6ft 6s 5s 25 27 mph 1011.9mb 74f 70f
2:50pm 5ft 5s 5s 25 27 mph 1011.8mb 74f 71f
1:50pm 4.5ft 5s 4s 22 27 mph 1011.4mb 74f 71f
12:50pm 4ft 7s 4s 22 27 mph 1011.5mb 75f 72f
11:50am 3.5ft 7s 5s 22 27 mph 1012.2mb 75f 73f
10:50am 3.5ft 7s 6s 9 13 mph 1013.1mb 75f 75f
9:50am 3.5ft 6s 6s 9 11 mph 1013mb 75f 74f
8:50am 3.5ft 7s 6s 2 4 mph 1012.1mb 74f 74f
7:50am 3.5ft 7s 6s 2
mph
1011mb 74f 74f
6:50am 4ft 6s 6s 2 4 mph 1010mb 74f 74f
5:50am 4ft 6s 6s 4 7 mph 1009.4mb 74f 74f
4:50am 4ft 7s 5s 2 4 mph 1009mb 74f 74f
3:50am 4.5ft 6s 6s 2 4 mph 1008.6mb 74f 74f
2:50am 4ft 7s 5s 2 4 mph 1008.5mb 74f 74f
1:50am 4.5ft 6s 6s  -  mph 1007.9mb 74f 75f
12:50am 4.5ft 6s 6s 2
mph
1007.9mb 74f 75f
Sun 11/23 11:50pm 4.5ft 6s 6s 2 4 mph 1008mb 74f 75f
10:50pm 4.5ft 7s 6s 7
mph
1007.7mb 75f 75f
9:50pm 4.5ft 6s 6s 7 9 mph 1007.4mb 75f 75f
8:50pm 5ft 6s 6s 9 11 mph 1006.7mb 75f 75f
7:50pm 5ft 7s 6s 9 11 mph 1006.2mb 75f 75f
6:50pm 5ft 6s 6s 7 9 mph 1005.8mb 75f 75f
5:50pm 5ft 7s 6s 9 11 mph 1005.3mb 75f 75f
4:50pm 5.5ft 7s 6s 11 13 mph 1004.6mb 75f 75f
3:50pm 6ft 7s 6s 13 16 mph 1004.5mb 75f 75f
2:50pm 5.5ft 7s 6s 16 18 mph 1004.8mb 75f 75f
1:50pm 5.5ft 7s 6s 13 18 mph 1005.6mb 75f 74f
12:50pm 5.5ft 7s 6s 13 18 mph 1007.2mb 75f 73f
11:50am 5.5ft 7s 6s 13 16 mph 1008.4mb 75f 72f
10:50am 6ft 7s 6s 16 18 mph 1009.2mb 75f 71f
9:50am 6ft 7s  -  13 16 mph 1009.8mb 74f 70f
8:50am 6ft 7s 6s 9 11 mph 1009.9mb 74f 68f
7:50am 6ft 7s 6s 7 11 mph 1010mb 74f 67f
6:50am 6.5ft 7s 6s 9 13 mph 1009.9mb 74f 66f
5:50am 7ft 7s 6s 18 20 mph 1009.2mb 74f 66f
4:50am 7ft 8s 6s 13 18 mph 1009.7mb 74f 67f
3:50am 8.5ft 7s 6s 25 31 mph 1009.4mb 74f 66f